Schedule Details

Flight Number: CPX790
Departure: Kingsford Smith International Airport (YSSY) at N/A
Arrival: Changi International Airport (WSSS) at N/A
Route: KADOM A576 PKS/N0482F360 A576 AS A587 ONOXA/N0482F380 G326 BLI M635 SURGA


Current Weather Information
YSSY 152100Z 31005KT 9999 FEW030 SCT300 22/14 Q1021 NOSIG
WSSS 152130Z 01004KT 300V080 9999 FEW018 BKN300 25/23 Q1013 NOSIG

Route Map